Time;durP1;ratioP1;P1;durP2;ratioP2;P2;SDS_P1;SDS_P2;PMS_P1;PMS_P2;Temp;Humidity;BMP_temperature;BMP_pressure;BME280_temperature;BME280_humidity;BME280_pressure;Samples;Min_cycle;Max_cycle;Signal;HPM_P1;HPM_P2
2022/09/30 00:02:34;;;;;;;13.55;6.88;;;;;;;;;;6342847;22;20036;-89
2022/09/30 00:59:41;;;;;;;8.07;5.63;;;;;;;;;;6329789;22;20181;31
2022/09/30 01:11:18;;;;;;;10.85;6.07;;;;;;;;;;6275209;22;20023;-90
2022/09/30 02:00:06;;;;;;;7.03;5.55;;;;;;;;;;6278986;22;20243;-88
2022/09/30 02:03:08;;;;;;;8.35;5.38;;;;;;;;;;6276889;22;20466;-87
2022/09/30 02:06:15;;;;;;;6.82;5.72;;;;;;;;;;6242051;22;20095;-92
2022/09/30 02:09:28;;;;;;;10.05;6.25;;;;;;;;;;6277649;22;20042;-89
2022/09/30 02:30:53;;;;;;;12.15;7.90;;;;;;;;;;6243578;22;20028;-88
2022/09/30 02:58:33;;;;;;;8.95;7.97;;;;;;;;;;6325960;22;20034;-87
2022/09/30 03:00:59;;;;;;;9.68;8.40;;;;;;;;;;6303330;22;20042;-88
2022/09/30 03:03:46;;;;;;;14.75;9.18;;;;;;;;;;6309946;22;20741;-91
2022/09/30 03:24:21;;;;;;;139.02;6.22;;;;;;;;;;6299402;22;20045;-88
2022/09/30 03:26:54;;;;;;;6.63;3.90;;;;;;;;;;6226940;22;20030;-87
2022/09/30 03:29:45;;;;;;;5.15;4.60;;;;;;;;;;6251475;22;20447;-89
2022/09/30 03:32:27;;;;;;;6.20;5.60;;;;;;;;;;6305577;22;20153;-89
2022/09/30 03:38:33;;;;;;;8.38;6.93;;;;;;;;;;6306177;22;20534;-89
2022/09/30 03:50:14;;;;;;;9.57;8.00;;;;;;;;;;6294873;22;20465;31
2022/09/30 04:02:53;;;;;;;6.93;6.28;;;;;;;;;;6282400;22;20491;-89
2022/09/30 04:41:42;;;;;;;244.75;9.95;;;;;;;;;;6291898;22;20089;-88
2022/09/30 05:02:52;;;;;;;25.00;6.13;;;;;;;;;;6302981;22;20250;-90
2022/09/30 05:05:19;;;;;;;29.13;11.00;;;;;;;;;;6249726;22;20296;-86
2022/09/30 05:11:26;;;;;;;71.82;25.42;;;;;;;;;;6277621;22;20027;-89
2022/09/30 05:14:01;;;;;;;78.45;11.20;;;;;;;;;;6279114;22;20015;-90
2022/09/30 05:16:43;;;;;;;136.45;10.43;;;;;;;;;;6260116;22;20023;-89
2022/09/30 05:25:52;;;;;;;245.45;10.68;;;;;;;;;;6341117;22;20037;-88
2022/09/30 05:28:49;;;;;;;256.45;11.30;;;;;;;;;;6280431;22;20053;-89
2022/09/30 05:34:30;;;;;;;62.35;9.80;;;;;;;;;;6291501;22;20024;-89
2022/09/30 05:47:10;;;;;;;22.23;10.15;;;;;;;;;;6303614;22;20044;-89
2022/09/30 05:56:14;;;;;;;20.33;10.75;;;;;;;;;;6281016;22;20130;31
2022/09/30 06:36:21;;;;;;;11.00;9.93;;;;;;;;;;6320725;22;20033;-85
2022/09/30 07:05:56;;;;;;;18.08;15.70;;;;;;;;;;6302479;22;20093;-86
2022/09/30 07:19:42;;;;;;;15.95;14.18;;;8.50;99.90;;;;;;6340706;22;20497;-88
2022/09/30 07:29:32;;;;;;;16.90;13.70;;;;;;;;;;6302245;22;20360;-88
2022/09/30 07:43:43;;;;;;;16.80;13.45;;;;;;;;;;6306329;22;20034;-85
2022/09/30 08:22:12;;;;;;;8.57;7.68;;;;;;;;;;6311010;22;20022;-89
2022/09/30 08:27:21;;;;;;;10.73;7.80;;;;;;;;;;6301276;22;20037;-90
2022/09/30 08:39:09;;;;;;;11.52;7.68;;;;;;;;;;6278902;22;20082;-89
2022/09/30 08:41:38;;;;;;;8.77;6.70;;;;;;;;;;6221871;22;20020;-89
2022/09/30 08:44:30;;;;;;;10.48;6.85;;;;;;;;;;6224881;22;20073;-87
2022/09/30 08:50:21;;;;;;;6.63;6.03;;;;;;;;;;6274089;22;20042;-88
2022/09/30 08:56:01;;;;;;;8.95;5.13;;;;;;;;;;6276558;22;20016;-88
2022/09/30 09:02:11;;;;;;;4.80;4.20;;;;;;;;;;6278255;22;20019;-91
2022/09/30 09:04:56;;;;;;;9.75;6.50;;;;;;;;;;6249553;22;20065;-86
2022/09/30 09:55:43;;;;;;;4.68;4.18;;;;;;;;;;6279990;22;20036;-91
2022/09/30 09:58:18;;;;;;;7.55;4.38;;;;;;;;;;6224807;22;20030;-88
2022/09/30 10:03:36;;;;;;;3.75;3.40;;;;;;;;;;6302309;22;20027;-87
2022/09/30 10:38:01;;;;;;;5.22;3.38;;;15.80;99.90;;;;;;6298235;22;20046;-87
2022/09/30 10:44:18;;;;;;;2.83;1.90;;;;;;;;;;6335706;22;20053;-87
2022/09/30 11:18:18;;;;;;;1.40;1.30;;;;;;;;;;6287665;22;20091;-88
2022/09/30 11:47:57;;;;;;;3.10;2.50;;;;;;;;;;6313789;22;20018;-87
2022/09/30 11:50:31;;;;;;;2.70;2.50;;;;;;;;;;6261543;22;20460;-88
2022/09/30 11:53:17;;;;;;;2.88;2.67;;;;;;;;;;6287074;22;20098;-88
2022/09/30 12:05:40;;;;;;;1.55;1.45;;;;;;;;;;6350088;22;20056;-87
2022/09/30 12:27:27;;;;;;;2.50;1.20;;;;;;;;;;6343898;22;20019;-88
2022/09/30 12:33:42;;;;;;;2.28;1.60;;;;;;;;;;6347373;22;20496;-87
2022/09/30 12:45:39;;;;;;;2.75;2.10;;;;;;;;;;6250397;22;20020;-88
2022/09/30 12:48:24;;;;;;;1.80;1.70;;;;;;;;;;6249930;22;20811;-86
2022/09/30 12:50:53;;;;;;;2.88;1.77;;;;;;;;;;6250536;22;20081;-85
2022/09/30 12:53:28;;;;;;;2.55;1.70;;;;;;;;;;6247539;22;20028;-85
2022/09/30 13:09:35;;;;;;;1.80;1.70;;;;;;;;;;6357178;22;20017;-90
2022/09/30 13:12:01;;;;;;;2.97;2.40;;;;;;;;;;6306427;22;20026;-90
2022/09/30 14:55:36;;;;;;;7.93;6.57;;;;;;;;;;6277080;22;20051;-89
2022/09/30 14:58:22;;;;;;;8.35;7.25;;;;;;;;;;6214978;23;20047;-86
2022/09/30 15:00:56;;;;;;;8.75;7.10;;;;;;;;;;6216127;23;20076;-88
2022/09/30 15:10:48;;;;;;;11.98;9.02;;;16.80;99.90;;;;;;6266175;22;20106;-85
2022/09/30 15:23:51;;;;;;;11.23;10.18;;;;;;;;;;6311114;22;20480;-86
2022/09/30 16:03:35;;;;;;;10.37;9.07;;;;;;;;;;6321733;22;20030;-86
2022/09/30 16:12:53;;;;;;;10.20;9.25;;;;;;;;;;6336513;22;20023;-86
2022/09/30 16:15:19;;;;;;;11.35;9.18;;;;;;;;;;6313834;22;20026;-86
2022/09/30 16:37:10;;;;;;;11.63;10.43;;;;;;;;;;6303849;22;20026;-87
2022/09/30 16:39:46;;;;;;;12.65;11.43;;;;;;;;;;6286246;22;20034;-89
2022/09/30 16:48:51;;;;;;;12.25;10.32;;;;;;;;;;6317116;22;20497;-88
2022/09/30 17:19:09;;;;;;;11.05;9.90;;;;;;;;;;6338370;22;20030;-84
2022/09/30 17:21:35;;;;;;;10.15;9.15;;;;;;;;;;6293989;22;20046;-85
2022/09/30 17:29:19;;;;;;;10.55;8.85;;;;;;;;;;6315252;22;20235;-83
2022/09/30 17:31:45;;;;;;;10.93;8.80;;;;;;;;;;6341380;22;20027;-83
2022/09/30 17:34:11;;;;;;;11.00;8.25;;;;;;;;;;6282396;22;20015;-85
2022/09/30 17:36:38;;;;;;;12.45;8.52;;;;;;;;;;6279032;22;20019;-84
2022/09/30 17:39:06;;;;;;;9.13;8.20;;;;;;;;;;6306462;22;20446;-84
2022/09/30 17:44:16;;;;;;;9.90;8.15;;;;;;;;;;6302528;22;20065;-86
2022/09/30 17:46:45;;;;;;;10.30;8.73;;;;;;;;;;6277139;22;20050;-84
2022/09/30 17:49:18;;;;;;;12.93;8.73;;;;;;;;;;6301396;22;20331;-86
2022/09/30 17:51:44;;;;;;;9.10;7.72;;;;;;;;;;6329841;22;20021;-85
2022/09/30 17:54:10;;;;;;;9.77;7.93;;;;;;;;;;6247758;22;20023;-86
2022/09/30 17:56:37;;;;;;;8.70;7.75;;;;;;;;;;6330489;22;20022;-85
2022/09/30 17:59:03;;;;;;;10.23;7.90;;;;;;;;;;6274504;22;20053;-86
2022/09/30 18:01:57;;;;;;;9.15;8.27;;;;;;;;;;6303611;22;20027;-87
2022/09/30 18:04:24;;;;;;;9.48;8.43;;;;;;;;;;6328354;22;20022;-85
2022/09/30 18:06:51;;;;;;;9.10;8.15;;;;;;;;;;6275814;22;20139;-87
2022/09/30 18:09:17;;;;;;;8.75;7.85;;;;;;;;;;6300893;22;20015;-85
2022/09/30 18:11:43;;;;;;;8.20;7.28;;;;;;;;;;6274842;22;20023;-84
2022/09/30 18:14:10;;;;;;;10.02;7.22;;;;;;;;;;6328578;22;20097;-87
2022/09/30 18:16:36;;;;;;;10.68;7.20;;;;;;;;;;6297636;22;20015;-85
2022/09/30 18:19:04;;;;;;;7.70;6.60;;;;;;;;;;6328214;22;20045;-86
2022/09/30 18:21:31;;;;;;;8.55;7.18;;;;;;;;;;6298702;22;20023;-84
2022/09/30 18:23:57;;;;;;;8.98;6.85;;;;;;;;;;6301581;22;20014;-86
2022/09/30 18:26:27;;;;;;;9.48;6.70;;;;;;;;;;6276108;22;20018;-84
2022/09/30 18:28:55;;;;;;;7.65;6.65;;;;;;;;;;6302605;22;20025;-83
2022/09/30 18:31:28;;;;;;;7.07;6.20;;;;;;;;;;6303039;22;20046;-84
2022/09/30 18:36:37;;;;;;;8.55;7.65;;;;;;;;;;6332417;22;20023;-83
2022/09/30 18:39:03;;;;;;;8.88;6.97;;;;;;;;;;6331640;22;20023;-82
2022/09/30 18:41:31;;;;;;;8.25;6.55;;;;;;;;;;6332371;22;20036;-83
2022/09/30 18:44:01;;;;;;;8.63;6.82;;;;;;;;;;6303585;22;20439;-82
2022/09/30 18:46:32;;;;;;;8.25;7.10;;;;;;;;;;6304341;22;20023;-84
2022/09/30 18:48:58;;;;;;;7.70;6.40;;;;;;;;;;6299465;22;20112;-83
2022/09/30 18:51:43;;;;;;;7.93;6.97;;;;;;;;;;6270501;22;20051;-86
2022/09/30 18:54:10;;;;;;;6.88;6.18;;;;;;;;;;6298668;22;20019;-83
2022/09/30 18:56:36;;;;;;;7.95;7.15;;;;;;;;;;6247036;22;20713;-84
2022/09/30 18:59:03;;;;;;;9.10;6.50;;;;;;;;;;6270329;22;20092;-84
2022/09/30 19:01:31;;;;;;;9.70;7.30;;;;;;;;;;6300052;22;20050;-83
2022/09/30 19:03:57;;;;;;;9.18;6.80;;;;;;;;;;6270093;22;20022;-84
2022/09/30 19:06:24;;;;;;;7.82;7.07;;;;;;;;;;6314462;22;20027;-83
2022/09/30 19:08:50;;;;;;;7.68;6.55;;;;;;;;;;6286629;22;20026;-84
2022/09/30 19:11:17;;;;;;;8.63;7.00;;;;;;;;;;6259723;22;20034;-84
2022/09/30 19:13:44;;;;;;;7.35;6.65;;;;;;;;;;6225274;22;20326;-82
2022/09/30 19:16:11;;;;;;;8.50;7.00;;;;;;;;;;6299701;22;20387;-83
2022/09/30 19:18:38;;;;;;;9.43;7.18;;;;;;;;;;6273933;22;20022;-83
2022/09/30 19:21:09;;;;;;;8.30;7.25;;;;;;;;;;6272491;22;20015;-84
2022/09/30 19:23:44;;;;;;;8.02;6.97;;;;;;;;;;6274007;22;20073;-83
2022/09/30 19:26:11;;;;;;;9.85;7.78;;;;;;;;;;6270699;22;20019;-84
2022/09/30 19:28:38;;;;;;;9.23;7.97;;;;;;;;;;6273347;22;20019;-84
2022/09/30 19:31:11;;;;;;;9.13;7.80;;;;;;;;;;6298705;22;20019;-84
2022/09/30 19:33:38;;;;;;;7.88;7.07;;;;;;;;;;6272602;22;20046;-85
2022/09/30 19:36:06;;;;;;;9.90;7.72;;;;;;;;;;6274365;22;20022;-84
2022/09/30 19:38:32;;;;;;;9.00;7.10;;;;;;;;;;6247096;22;20380;-83
2022/09/30 19:40:59;;;;;;;9.45;7.70;;;;;;;;;;6248998;22;20434;-84
2022/09/30 19:43:32;;;;;;;8.45;7.57;;;;;;;;;;6278065;22;20022;-85
2022/09/30 19:46:02;;;;;;;12.82;7.45;;;;;;;;;;6303108;22;20094;-83
2022/09/30 19:48:29;;;;;;;7.80;7.00;;;;;;;;;;6274633;22;20432;-84
2022/09/30 19:50:56;;;;;;;11.45;7.20;;;;;;;;;;6299253;22;20460;-85
2022/09/30 19:53:24;;;;;;;8.15;7.28;;;;;;;;;;6250255;22;20081;-85
2022/09/30 20:02:25;;;;;;;11.35;7.35;;;;;;;;;;6269013;22;20013;-86
2022/09/30 20:04:52;;;;;;;12.43;7.35;;;;;;;;;;6243505;22;20019;-83
2022/09/30 20:07:21;;;;;;;12.43;7.15;;;;;;;;;;6247455;22;20019;-83
2022/09/30 20:12:38;;;;;;;8.45;6.45;;;;;;;;;;6330503;22;20030;-84
2022/09/30 20:18:15;;;;;;;7.53;6.00;;;;;;;;;;6252785;23;20027;-82
2022/09/30 20:20:44;;;;;;;8.35;5.40;;;;;;;;;;6221243;23;20028;-85
2022/09/30 20:23:31;;;;;;;9.90;6.00;;;;;;;;;;6246588;23;20024;-84
2022/09/30 20:26:00;;;;;;;14.00;5.97;;;;;;;;;;6240646;23;20020;-84
2022/09/30 20:28:27;;;;;;;8.32;6.13;;;;;;;;;;6241102;23;20013;-84
2022/09/30 20:30:53;;;;;;;9.80;5.50;;;;;;;;;;6211160;23;20024;-83
2022/09/30 20:33:23;;;;;;;6.28;5.40;;;;;;;;;;6188611;23;20024;-84
2022/09/30 20:35:49;;;;;;;6.32;5.60;;;;;;;;;;6210661;23;20023;-84
2022/09/30 20:38:18;;;;;;;9.43;5.47;;;;;;;;;;6212972;23;20078;-84
2022/09/30 20:40:45;;;;;;;8.48;5.38;;;;;;;;;;6213916;23;20020;-84
2022/09/30 20:43:12;;;;;;;8.60;5.50;;;;;;;;;;6241029;23;20039;-83
2022/09/30 20:49:27;;;;;;;10.02;5.78;;;;;;;;;;6304715;22;20031;-84
2022/09/30 20:51:53;;;;;;;6.85;5.57;;;;;;;;;;6316840;22;20026;-83
2022/09/30 20:54:21;;;;;;;6.10;5.20;;;;;;;;;;6310749;22;20019;-85
2022/09/30 20:56:47;;;;;;;8.82;5.75;;;;;;;;;;6257292;22;20019;-83
2022/09/30 20:59:13;;;;;;;10.57;6.53;;;;;;;;;;6247985;22;20314;-85
2022/09/30 21:01:39;;;;;;;9.30;5.63;;;;;;;;;;6273539;22;20022;-84
2022/09/30 21:04:24;;;;;;;9.30;5.78;;;;;;;;;;6271516;22;20515;-84
2022/09/30 21:06:50;;;;;;;9.68;6.05;;;;;;;;;;6248637;22;20089;-86
2022/09/30 21:09:16;;;;;;;7.72;5.75;;;;;;;;;;6298917;22;20015;-86
2022/09/30 21:11:43;;;;;;;8.02;5.97;;;;;;;;;;6301976;22;20068;-87
2022/09/30 21:21:12;;;;;;;8.02;5.68;;;;;;;;;;6299442;22;20038;-85
2022/09/30 21:23:38;;;;;;;7.10;5.43;;;;;;;;;;6243647;22;20023;-85
2022/09/30 21:26:06;;;;;;;7.10;5.50;;;;;;;;;;6300314;22;20019;-86
2022/09/30 21:28:32;;;;;;;8.68;5.60;;;;;;;;;;6270142;22;20098;-85
2022/09/30 21:30:58;;;;;;;9.13;5.35;;;;;;;;;;6304140;22;20034;-86
2022/09/30 21:33:25;;;;;;;8.15;5.50;;;;;;;;;;6275433;22;20023;-85
2022/09/30 21:35:58;;;;;;;7.65;5.00;;;;;;;;;;6285059;22;20068;-83
2022/09/30 21:38:25;;;;;;;6.68;5.07;;;;;;;;;;6281460;22;20034;-84
2022/09/30 21:41:07;;;;;;;7.28;4.90;;;;;;;;;;6303587;22;20015;-84
2022/09/30 21:43:35;;;;;;;5.45;4.15;;;;;;;;;;6276672;22;20110;-85
2022/09/30 21:46:02;;;;;;;7.30;4.28;;;;;;;;;;6298249;22;20022;-84
2022/09/30 21:48:29;;;;;;;7.47;4.50;;;;;;;;;;6274295;22;20077;-84
2022/09/30 21:50:55;;;;;;;6.47;4.20;;;;;;;;;;6300408;22;20019;-85
2022/09/30 21:53:24;;;;;;;6.00;4.65;;;;;;;;;;6278994;22;20023;-84
2022/09/30 21:55:51;;;;;;;5.80;4.45;;;;;;;;;;6252102;22;20030;-85
2022/09/30 22:05:19;;;;;;;8.23;4.10;;;;;;;;;;6303847;22;20052;-86
2022/09/30 22:07:46;;;;;;;4.35;3.95;;;;;;;;;;6303866;22;20069;-85
2022/09/30 22:13:35;;;;;;;13.85;4.40;;;;;;;;;;6303142;22;20453;-86
2022/09/30 22:16:02;;;;;;;7.45;3.90;;;;;;;;;;6249985;22;20096;-85
2022/09/30 22:25:45;;;;;;;6.07;3.58;;;;;;;;;;6294169;22;20031;-84
2022/09/30 22:28:11;;;;;;;3.40;3.10;;;;;;;;;;6273983;22;20110;-85
2022/09/30 22:30:37;;;;;;;6.82;4.15;;;;;;;;;;6273902;22;20985;-85
2022/09/30 22:38:33;;;;;;;4.32;3.88;;;;;;;;;;6289064;22;20030;-86
2022/09/30 22:40:59;;;;;;;6.40;4.18;;;;;;;;;;6315254;22;20019;-86
2022/09/30 22:43:25;;;;;;;4.65;4.20;;;;;;;;;;6277703;22;20471;-86
2022/09/30 22:46:01;;;;;;;6.80;4.22;;;;;;;;;;6275114;22;20019;-85
2022/09/30 22:48:31;;;;;;;7.50;4.30;;;;;;;;;;6223454;22;20049;-86
2022/09/30 22:51:16;;;;;;;4.90;4.40;;;;;;;;;;6273054;22;20555;-86
2022/09/30 22:53:42;;;;;;;6.53;5.72;;;;;;;;;;6273690;22;20023;-86
2022/09/30 22:56:08;;;;;;;5.70;4.10;;;;;;;;;;6273849;22;20015;-87
2022/09/30 22:58:35;;;;;;;5.88;4.78;;;;;;;;;;6246659;22;20457;-86
2022/09/30 23:01:02;;;;;;;6.07;5.00;;;;;;;;;;6301237;22;20023;-86
2022/09/30 23:03:28;;;;;;;10.43;6.03;;;;;;;;;;6271677;22;20348;-85
2022/09/30 23:06:01;;;;;;;7.72;6.15;;;;;;;;;;6220124;22;20019;-87
2022/09/30 23:08:40;;;;;;;6.97;5.80;;;;;;;;;;6246848;22;20019;-85
2022/09/30 23:11:11;;;;;;;8.57;5.65;;;;;;;;;;6244337;22;20537;-85
2022/09/30 23:13:37;;;;;;;10.23;5.95;;;;;;;;;;6246415;22;20019;-86
2022/09/30 23:16:04;;;;;;;7.22;6.40;;;;;;;;;;6245144;22;20570;-85
2022/09/30 23:18:32;;;;;;;7.95;6.13;;;;;;;;;;6299265;22;20447;-86
2022/09/30 23:21:11;;;;;;;7.50;6.65;;;;;;;;;;6298863;22;20019;-85
2022/09/30 23:23:38;;;;;;;6.68;6.07;;;;;;;;;;6273035;22;20047;-87
2022/09/30 23:26:24;;;;;;;8.30;7.10;;;;;;;;;;6246371;22;20023;-85
2022/09/30 23:29:00;;;;;;;7.05;6.00;;;;;;;;;;6269982;22;20019;-87
2022/09/30 23:31:27;;;;;;;8.25;6.22;;;;;;;;;;6273420;22;20050;-85
2022/09/30 23:33:54;;;;;;;7.63;6.43;;;;;;;;;;6271584;22;20475;-85
2022/09/30 23:36:25;;;;;;;6.55;5.95;;;;;;;;;;6299097;22;20027;-88
2022/09/30 23:38:51;;;;;;;8.05;7.30;;;;;;;;;;6273031;22;20325;-86
2022/09/30 23:41:17;;;;;;;8.68;6.47;;;;;;;;;;6248110;22;20015;-85
2022/09/30 23:43:47;;;;;;;11.45;6.95;;;;;;;;;;6272624;22;20471;-87
2022/09/30 23:46:13;;;;;;;8.02;7.18;;;;;;;;;;6274841;22;20019;-85
2022/09/30 23:48:39;;;;;;;8.55;7.70;;;;;;;;;;6271504;22;20090;-86
2022/09/30 23:51:06;;;;;;;9.05;8.13;;;;;;;;;;6274167;22;20539;-86
2022/09/30 23:56:15;;;;;;;9.10;7.95;;;;;;;;;;6301004;22;20030;-87
2022/09/30 23:58:42;;;;;;;9.52;8.63;;;;;;;;;;6248871;22;20019;-84
